Rizokarpason, Cyprus
Current Conditions -  °F | °C
As of 1:50 PM on Wednesday 26 Nov 2014 (Local Time) from LCEN Reporting Station
Scattered Clouds Scattered Clouds  
Wind Chill: 61°   Ceiling: Unl
Heat Index: 61°   Visibility: 6mi
Dew Point: 41°   Wind: 10mph
Humidity: 48%   Direction: 290°WNW
Pressure: 29.77"   Gusts: NA
Location:  35.58°N, 34.4°E
Report Text: LCEN 261050Z 29009KT 270V330 9999 FEW025 SCT030 16/05 Q1008 NOSIG
Loading
Personal Weather Stations






























Interactive Weather Map New forecast layout! Learn more

10-Day Weather Forecast

Advertisements
Track Severe Weather on mobile